weather.gov     
National Weather Service

Terminal Aerodrome Forecast
NWS Homepage
This page is being discontinued on March 12, 2014.
The same data is available at this site. Please update your bookmarks.
Thank you, and we apologize for the inconvenience.
Please send an email to SR-SRH.Webmaster@noaa.gov with any concerns.


Current Version
Previous Version:    01  02  03  04  05  06  07  08  09  10  11  12  13  14  15  16  17  18  19  20  21  22  23  24  25  26  27  
[Printable]
159
FTUS41 KBOX 301433 AAA
TAFBED
TAF AMD
KBED 301433Z 3015/3112 00000KT 3SM -SN BR SCT015 OVC040
     FM301600 29004KT 2SM -SN OVC015
     FM301800 32008KT 2SM -SN OVC012
     FM310000 31012G24KT 3SM -SN OVC020
     FM310300 32014G27KT 1SM -SN OVC015
     FM310600 32017G35KT 1SM -SN OVC015
     FM310900 31016G33KT P6SM OVC010=




159
FTUS41 KBOX 301433 AAA
TAFBED
TAF AMD
KBED 301433Z 3015/3112 00000KT 3SM -SN BR SCT015 OVC040
     FM301600 29004KT 2SM -SN OVC015
     FM301800 32008KT 2SM -SN OVC012
     FM310000 31012G24KT 3SM -SN OVC020
     FM310300 32014G27KT 1SM -SN OVC015
     FM310600 32017G35KT 1SM -SN OVC015
     FM310900 31016G33KT P6SM OVC010=


U.S. Dept. of Commerce
NOAA National Weather Service
1325 East West Highway
Silver Spring, MD 20910
E-mail: w-nws.webmaster@noaa.gov
Page last modified: May 16, 2007
NATIONAL WEATHER SERVICE: for Safety, for Work, for Fun - FOR LIFE